Time;durP1;ratioP1;P1;durP2;ratioP2;P2;SDS_P1;SDS_P2;PMS_P1;PMS_P2;Temp;Humidity;BMP_temperature;BMP_pressure;BME280_temperature;BME280_humidity;BME280_pressure;Samples;Min_cycle;Max_cycle;Signal;HPM_P1;HPM_P2
2021/12/21 00:01:00;;;;;;;;;;;;;;;2.31;57.40;101641.28;4959736;28;7248;-73
2021/12/21 00:03:25;;;;;;;;;;;;;;;2.29;56.83;101641.09;4959377;28;6812;-73
2021/12/21 00:05:53;;;;;;;;;;;;;;;2.26;57.10;101643.34;4942730;28;6871;-73
2021/12/21 00:08:19;;;;;;;;;;;;;;;2.24;56.81;101634.69;4960881;28;6807;-73
2021/12/21 00:10:47;;;;;;;;;;;;;;;2.24;57.54;101634.69;4945269;28;6825;-73
2021/12/21 00:13:40;;;;;;;;;;;;;;;2.27;57.86;101634.09;4961669;28;6905;-73
2021/12/21 00:18:41;;;;;;;;;;;;;;;2.30;58.31;101637.81;4963446;28;6951;-73
2021/12/21 00:21:29;;;;;;;;;;;;;;;2.34;58.35;101632.34;4946926;28;6958;-73
2021/12/21 00:23:59;;;;;;;;;;;;;;;2.36;58.31;101630.88;4959232;28;6819;-73
2021/12/21 00:26:25;;;;;;;;;;;;;;;2.41;57.69;101623.75;4945109;28;6809;-72
2021/12/21 00:29:02;;;;;;;;;;;;;;;2.45;57.91;101625.81;4961815;28;6800;-72
2021/12/21 00:31:32;;;;;;;;;;;;;;;2.47;58.12;101624.38;4945658;28;7179;-73
2021/12/21 00:33:59;;;;;;;;;;;;;;;2.49;57.97;101625.41;4960579;28;7072;-73
2021/12/21 00:36:29;;;;;;;;;;;;;;;2.53;57.65;101621.56;4928138;28;7228;-73
2021/12/21 00:39:00;;;;;;;;;;;;;;;2.56;57.78;101618.41;4927749;28;7215;-73
2021/12/21 00:41:26;;;;;;;;;;;;;;;2.55;57.52;101612.47;4944930;28;7019;-73
2021/12/21 00:43:53;;;;;;;;;;;;;;;2.57;57.78;101615.16;4959003;28;6971;-73
2021/12/21 00:46:18;;;;;;;;;;;;;;;2.58;57.64;101617.81;4958822;28;7092;-72
2021/12/21 00:48:53;;;;;;;;;;;;;;;2.60;58.05;101611.28;4960939;28;7070;-73
2021/12/21 00:51:24;;;;;;;;;;;;;;;2.62;57.46;101619.03;4958119;28;7149;-72
2021/12/21 00:53:50;;;;;;;;;;;;;;;2.62;58.24;101611.44;4976259;28;7149;-72
2021/12/21 00:56:16;;;;;;;;;;;;;;;2.62;57.92;101612.34;4959419;28;8705;-73
2021/12/21 00:58:42;;;;;;;;;;;;;;;2.62;57.88;101612.34;4958424;28;6796;-73
2021/12/21 01:01:08;;;;;;;;;;;;;;;2.62;57.15;101612.34;4958780;28;6792;-72
2021/12/21 01:03:38;;;;;;;;;;;;;;;2.62;57.55;101625.00;4960970;28;6800;-73
2021/12/21 01:06:22;;;;;;;;;;;;;;;2.62;57.43;101617.41;4938611;28;7106;-73
2021/12/21 01:11:26;;;;;;;;;;;;;;;2.62;58.51;101616.50;4958322;28;6892;-72
2021/12/21 01:14:03;;;;;;;;;;;;;;;2.61;57.31;101613.09;4958859;28;6820;-73
2021/12/21 01:16:42;;;;;;;;;;;;;;;2.61;57.60;101614.72;4959947;28;6812;-73
2021/12/21 01:22:00;;;;;;;;;;;;;;;2.58;57.81;101609.34;4958777;28;7010;-73
2021/12/21 01:24:39;;;;;;;;;;;;;;;2.53;57.10;101592.81;4961089;28;6820;-73
2021/12/21 01:27:30;;;;;;;;;;;;;;;2.49;57.31;101595.03;4960363;28;6907;-73
2021/12/21 01:32:48;;;;;;;;;;;;;;;2.46;57.45;101598.91;4959028;28;7065;-73
2021/12/21 01:35:26;;;;;;;;;;;;;;;2.46;57.88;101601.41;4960413;28;8352;-73
2021/12/21 01:38:12;;;;;;;;;;;;;;;2.46;57.70;101597.28;4958601;28;6827;-73
2021/12/21 01:51:11;;;;;;;;;;;;;;;2.32;57.35;101587.38;4960551;28;7180;-73
2021/12/21 01:53:37;;;;;;;;;;;;;;;2.28;57.94;101591.25;4944224;28;7181;-73
2021/12/21 01:56:05;;;;;;;;;;;;;;;2.23;57.15;101587.38;4958573;28;6812;-73
2021/12/21 01:58:33;;;;;;;;;;;;;;;2.17;57.79;101590.19;4944406;28;6888;-73
2021/12/21 02:01:00;;;;;;;;;;;;;;;2.12;57.78;101583.75;4957172;28;6962;-73
2021/12/21 02:03:27;;;;;;;;;;;;;;;2.07;57.45;101588.34;4962346;28;7106;-73
2021/12/21 02:05:52;;;;;;;;;;;;;;;2.04;57.86;101587.13;4962427;28;6898;-73
2021/12/21 02:08:18;;;;;;;;;;;;;;;2.00;57.78;101580.88;4955669;28;6913;-73
2021/12/21 02:10:44;;;;;;;;;;;;;;;1.98;57.69;101576.38;4962032;28;6959;-73
2021/12/21 02:13:10;;;;;;;;;;;;;;;1.95;57.53;101582.06;4940469;28;6788;-73
2021/12/21 02:15:35;;;;;;;;;;;;;;;1.93;57.70;101570.84;4963033;28;6971;-73
2021/12/21 02:23:06;;;;;;;;;;;;;;;1.85;57.59;101571.75;4963900;28;6876;-73
2021/12/21 02:28:33;;;;;;;;;;;;;;;1.78;58.08;101572.72;4961957;28;8515;-73
2021/12/21 02:30:59;;;;;;;;;;;;;;;1.74;58.22;101569.03;4962520;28;7038;-73
2021/12/21 02:33:26;;;;;;;;;;;;;;;1.70;57.31;101574.47;4960519;28;6846;-73
2021/12/21 02:35:55;;;;;;;;;;;;;;;1.69;57.31;101576.84;4945627;28;6800;-73
2021/12/21 02:38:21;;;;;;;;;;;;;;;1.66;57.76;101574.91;4947146;28;7157;-73
2021/12/21 02:40:47;;;;;;;;;;;;;;;1.63;57.62;101580.53;4946295;28;6987;-73
2021/12/21 02:43:13;;;;;;;;;;;;;;;1.61;58.08;101571.00;4946272;28;6949;-73
2021/12/21 02:45:41;;;;;;;;;;;;;;;1.59;57.67;101573.38;4961813;28;6887;-73
2021/12/21 02:48:08;;;;;;;;;;;;;;;1.58;57.97;101573.22;4958377;28;7047;-73
2021/12/21 02:50:36;;;;;;;;;;;;;;;1.55;57.71;101570.41;4962536;28;6978;-73
2021/12/21 02:53:03;;;;;;;;;;;;;;;1.54;58.34;101574.53;4962874;28;6883;-73
2021/12/21 02:55:29;;;;;;;;;;;;;;;1.53;58.19;101583.75;4961370;28;7042;-73
2021/12/21 02:57:57;;;;;;;;;;;;;;;1.50;57.89;101570.78;4961339;28;6859;-73
2021/12/21 03:00:25;;;;;;;;;;;;;;;1.48;57.97;101569.75;4961550;28;6823;-73
2021/12/21 03:02:52;;;;;;;;;;;;;;;1.47;57.86;101573.00;4965144;28;8058;-73
2021/12/21 03:05:19;;;;;;;;;;;;;;;1.45;58.06;101566.00;4964968;28;8039;-74
2021/12/21 03:10:13;;;;;;;;;;;;;;;1.41;58.10;101574.91;4965121;28;6788;-73
2021/12/21 03:15:30;;;;;;;;;;;;;;;1.38;58.30;101577.13;4960568;28;7157;-73
2021/12/21 03:17:57;;;;;;;;;;;;;;;1.38;58.18;101574.59;4949493;28;7005;-73
2021/12/21 03:20:25;;;;;;;;;;;;;;;1.37;58.29;101570.28;4964385;28;7018;-73
2021/12/21 03:22:51;;;;;;;;;;;;;;;1.36;58.24;101573.53;4964453;28;7877;-73
2021/12/21 03:25:18;;;;;;;;;;;;;;;1.33;58.05;101565.63;4949100;28;6941;-73
2021/12/21 03:27:44;;;;;;;;;;;;;;;1.33;58.10;101568.16;4979287;28;6796;-74
2021/12/21 03:30:14;;;;;;;;;;;;;;;1.30;58.37;101563.66;4948830;28;7166;-73
2021/12/21 03:32:40;;;;;;;;;;;;;;;1.29;58.11;101571.09;4965922;28;6816;-73
2021/12/21 03:35:07;;;;;;;;;;;;;;;1.25;58.02;101570.75;4965476;28;6788;-73
2021/12/21 03:37:33;;;;;;;;;;;;;;;1.22;57.40;101572.97;4939209;28;6796;-73
2021/12/21 03:40:01;;;;;;;;;;;;;;;1.20;57.79;101558.41;4966604;28;7179;-73
2021/12/21 03:42:27;;;;;;;;;;;;;;;1.16;58.01;101562.25;4949083;28;7229;-73
2021/12/21 03:44:53;;;;;;;;;;;;;;;1.14;57.73;101562.81;4964970;28;6831;-72
2021/12/21 03:47:22;;;;;;;;;;;;;;;1.12;57.76;101557.59;4961495;28;6845;-73
2021/12/21 03:50:01;;;;;;;;;;;;;;;1.12;58.01;101565.19;4965668;28;7192;-73
2021/12/21 03:52:28;;;;;;;;;;;;;;;1.10;57.83;101559.97;4965796;28;7197;-73
2021/12/21 03:55:01;;;;;;;;;;;;;;;1.12;58.29;101559.25;4963480;28;6816;-73
2021/12/21 03:57:28;;;;;;;;;;;;;;;1.14;58.48;101551.06;4965853;28;6807;-73
2021/12/21 03:59:55;;;;;;;;;;;;;;;1.14;58.38;101558.66;4965674;28;8030;-73
2021/12/21 04:02:25;;;;;;;;;;;;;;;1.15;58.42;101552.00;4963282;28;6804;-73
2021/12/21 04:04:52;;;;;;;;;;;;;;;1.15;58.51;101549.47;4962295;28;6796;-73
2021/12/21 04:07:18;;;;;;;;;;;;;;;1.15;58.70;101557.03;4960763;28;7173;-73
2021/12/21 04:09:44;;;;;;;;;;;;;;;1.15;58.99;101552.88;4961177;28;6829;-72
2021/12/21 04:12:10;;;;;;;;;;;;;;;1.15;58.90;101549.47;4962839;28;7513;-72
2021/12/21 04:14:37;;;;;;;;;;;;;;;1.15;58.60;101552.88;4943027;28;7263;-72
2021/12/21 04:17:03;;;;;;;;;;;;;;;1.16;58.57;101552.16;4955542;28;6900;-72
2021/12/21 04:19:29;;;;;;;;;;;;;;;1.17;58.47;101550.50;4959289;28;7150;-72
2021/12/21 04:21:55;;;;;;;;;;;;;;;1.17;58.39;101553.94;4960039;28;7746;-73
2021/12/21 04:24:20;;;;;;;;;;;;;;;1.20;58.94;101546.69;4961775;28;6820;-73
2021/12/21 04:26:47;;;;;;;;;;;;;;;1.24;59.11;101552.94;4945522;28;6958;-73
2021/12/21 04:29:13;;;;;;;;;;;;;;;1.29;58.99;101548.38;4958630;28;7114;-73
2021/12/21 04:31:39;;;;;;;;;;;;;;;1.32;59.12;101549.59;4961329;28;7011;-73
2021/12/21 04:34:05;;;;;;;;;;;;;;;1.35;58.89;101542.31;4942730;28;7284;-73
2021/12/21 04:36:30;;;;;;;;;;;;;;;1.38;58.81;101536.69;4944074;28;6870;-72
2021/12/21 04:38:58;;;;;;;;;;;;;;;1.41;58.81;101542.06;4957925;28;7276;-72
2021/12/21 04:41:27;;;;;;;;;;;;;;;1.43;58.98;101539.69;4952697;28;7114;-73
2021/12/21 04:43:57;;;;;;;;;;;;;;;1.44;58.87;101537.31;4958740;28;6995;-73
2021/12/21 04:46:25;;;;;;;;;;;;;;;1.45;59.01;101536.59;4960469;28;6811;-73
2021/12/21 04:48:52;;;;;;;;;;;;;;;1.46;58.30;101538.38;4957601;28;10573;-73
2021/12/21 04:51:18;;;;;;;;;;;;;;;1.46;58.39;101537.47;4937909;28;7019;-73
2021/12/21 04:53:44;;;;;;;;;;;;;;;1.44;58.17;101537.31;4961648;28;7004;-73
2021/12/21 04:56:09;;;;;;;;;;;;;;;1.42;57.78;101536.25;4954053;28;7131;-73
2021/12/21 04:58:36;;;;;;;;;;;;;;;1.39;57.85;101533.44;4960360;28;6796;-73
2021/12/21 05:01:03;;;;;;;;;;;;;;;1.36;58.07;101535.66;4956804;28;7242;-73
2021/12/21 05:03:29;;;;;;;;;;;;;;;1.34;58.05;101535.47;4958242;28;6812;-73
2021/12/21 05:05:55;;;;;;;;;;;;;;;1.33;58.27;101538.75;4944334;28;6979;-73
2021/12/21 05:08:26;;;;;;;;;;;;;;;1.33;58.30;101535.31;4954542;28;6955;-73
2021/12/21 05:10:58;;;;;;;;;;;;;;;1.33;58.68;101532.78;4949171;28;7134;-73
2021/12/21 05:13:29;;;;;;;;;;;;;;;1.33;58.50;101533.69;4943032;28;6887;-72
2021/12/21 05:15:56;;;;;;;;;;;;;;;1.35;58.78;101526.25;4956238;28;7066;-72
2021/12/21 05:18:22;;;;;;;;;;;;;;;1.37;58.85;101524.81;4927624;28;7029;-73
2021/12/21 05:20:49;;;;;;;;;;;;;;;1.40;58.67;101520.06;4959007;28;6792;-72
2021/12/21 05:23:15;;;;;;;;;;;;;;;1.43;58.73;101515.31;4944344;28;7077;-72
2021/12/21 05:25:41;;;;;;;;;;;;;;;1.48;59.24;101523.34;4961950;28;6808;-72
2021/12/21 05:28:11;;;;;;;;;;;;;;;1.51;58.70;101523.69;4960585;28;6784;-72
2021/12/21 05:30:36;;;;;;;;;;;;;;;1.55;59.32;101525.78;4957447;28;6800;-72
2021/12/21 05:33:04;;;;;;;;;;;;;;;1.59;59.01;101516.88;4940850;28;6792;-72
2021/12/21 05:35:33;;;;;;;;;;;;;;;1.64;58.93;101523.28;4951452;28;7394;-73
2021/12/21 05:38:02;;;;;;;;;;;;;;;1.68;59.29;101527.94;4939260;28;6804;-73
2021/12/21 05:40:41;;;;;;;;;;;;;;;1.68;58.68;101522.88;4940528;28;7276;-73
2021/12/21 05:43:09;;;;;;;;;;;;;;;1.69;58.96;101521.22;4945299;28;7152;-73
2021/12/21 05:45:35;;;;;;;;;;;;;;;1.69;58.62;101524.66;4956364;28;7005;-72
2021/12/21 05:48:02;;;;;;;;;;;;;;;1.66;58.50;101519.31;4952620;28;6872;-73
2021/12/21 05:50:27;;;;;;;;;;;;;;;1.65;58.02;101525.09;4955646;28;9282;-73
2021/12/21 05:52:53;;;;;;;;;;;;;;;1.62;58.53;101530.72;4956084;28;8277;-72
2021/12/21 05:55:21;;;;;;;;;;;;;;;1.61;58.67;101530.56;4955180;28;7054;-72
2021/12/21 05:57:47;;;;;;;;;;;;;;;1.57;58.02;101528.47;4947359;28;7170;-72
2021/12/21 06:00:18;;;;;;;;;;;;;;;1.55;58.11;101529.97;4963650;28;7210;-73
2021/12/21 06:02:45;;;;;;;;;;;;;;;1.49;58.21;101531.09;4976460;28;6792;-72
2021/12/21 06:05:10;;;;;;;;;;;;;;;1.45;58.21;101536.59;4949881;28;7179;-73
2021/12/21 06:07:36;;;;;;;;;;;;;;;1.44;58.06;101528.84;4938066;28;6804;-73
2021/12/21 06:10:14;;;;;;;;;;;;;;;1.43;58.22;101538.03;4960378;28;7156;-72
2021/12/21 06:26:10;;;;;;;;;;;;;;;1.41;58.72;101537.00;4971251;28;7082;-73
2021/12/21 06:28:36;;;;;;;;;;;;;;;1.45;59.25;101531.53;4955375;28;7188;-73
2021/12/21 06:31:04;;;;;;;;;;;;;;;1.49;59.26;101530.19;4936499;28;6996;-72
2021/12/21 06:33:31;;;;;;;;;;;;;;;1.53;59.06;101530.66;4941057;28;7312;-72
2021/12/21 06:35:57;;;;;;;;;;;;;;;1.55;58.71;101532.50;4954952;28;6800;-72
2021/12/21 06:38:23;;;;;;;;;;;;;;;1.58;59.12;101545.44;4953873;28;7982;-73
2021/12/21 06:40:50;;;;;;;;;;;;;;;1.58;58.81;101535.31;4954244;28;6800;-72
2021/12/21 06:43:17;;;;;;;;;;;;;;;1.60;59.30;101543.94;4955731;28;6804;-72
2021/12/21 06:51:23;;;;;;;;;;;;;;;1.59;59.32;101547.22;4962717;28;7367;-73
2021/12/21 06:53:53;;;;;;;;;;;;;;;1.58;59.13;101553.88;4960649;28;6842;-73
2021/12/21 06:56:21;;;;;;;;;;;;;;;1.62;59.26;101557.63;4957161;28;6843;-73
2021/12/21 06:58:47;;;;;;;;;;;;;;;1.64;58.99;101553.63;4951668;28;6808;-72
2021/12/21 07:01:13;;;;;;;;;;;;;;;1.67;58.94;101556.47;4958546;28;6824;-72
2021/12/21 07:03:41;;;;;;;;;;;;;;;1.69;59.27;101549.03;4959824;28;6994;-72
2021/12/21 07:06:09;;;;;;;;;;;;;;;1.68;58.94;101543.09;4960925;28;7286;-72
2021/12/21 07:09:04;;;;;;;;;;;;;;;1.67;59.02;101542.19;4963216;28;6816;-72
2021/12/21 07:19:44;;;;;;;;;;;;;;;1.60;58.89;101551.53;4941520;28;7433;-72
2021/12/21 07:22:10;;;;;;;;;;;;;;;1.60;58.55;101559.09;4934587;28;7397;-72
2021/12/21 07:24:36;;;;;;;;;;;;;;;1.59;58.55;101557.31;4947311;28;6788;-72
2021/12/21 07:27:03;;;;;;;;;;;;;;;1.59;58.48;101559.84;4952853;28;6827;-72
2021/12/21 07:29:29;;;;;;;;;;;;;;;1.59;58.77;101562.38;4965323;28;9236;-72
2021/12/21 07:31:55;;;;;;;;;;;;;;;1.58;58.73;101565.66;4938014;28;6997;-72
2021/12/21 07:34:20;;;;;;;;;;;;;;;1.58;58.92;101565.66;4952960;28;7130;-72
2021/12/21 07:36:47;;;;;;;;;;;;;;;1.57;58.75;101568.91;4951940;28;7217;-72
2021/12/21 07:39:17;;;;;;;;;;;;;;;1.55;58.74;101563.69;4950264;28;7239;-72
2021/12/21 07:41:44;;;;;;;;;;;;;;;1.53;58.61;101561.00;4953779;28;7225;-72
2021/12/21 07:44:10;;;;;;;;;;;;;;;1.52;58.36;101566.78;4949943;28;7168;-72
2021/12/21 07:46:36;;;;;;;;;;;;;;;1.51;58.30;101565.00;4949963;28;9438;-72
2021/12/21 07:49:02;;;;;;;;;;;;;;;1.53;58.56;101572.75;4951198;28;7042;-72
2021/12/21 07:51:29;;;;;;;;;;;;;;;1.53;58.48;101572.75;4926334;28;7797;-72
2021/12/21 07:53:55;;;;;;;;;;;;;;;1.52;58.72;101571.84;4946728;28;6793;-72
2021/12/21 07:56:21;;;;;;;;;;;;;;;1.54;58.58;101561.91;4948533;28;7315;-72
2021/12/21 07:58:47;;;;;;;;;;;;;;;1.56;59.17;101562.06;4934975;28;6988;-72
2021/12/21 08:01:14;;;;;;;;;;;;;;;1.57;58.76;101566.38;4949970;28;7154;-72
2021/12/21 08:03:40;;;;;;;;;;;;;;;1.58;59.00;101570.69;4949136;28;6908;-72
2021/12/21 08:06:08;;;;;;;;;;;;;;;1.59;59.09;101564.91;4951081;28;6797;-72
2021/12/21 08:08:38;;;;;;;;;;;;;;;1.59;58.74;101568.31;4949492;28;7205;-72
2021/12/21 08:11:14;;;;;;;;;;;;;;;1.60;58.76;101569.22;4949004;28;7244;-72
2021/12/21 08:13:44;;;;;;;;;;;;;;;1.62;58.59;101562.69;4957075;28;7944;-71
2021/12/21 08:16:11;;;;;;;;;;;;;;;1.63;59.11;101572.06;4955720;28;6860;-72
2021/12/21 08:18:38;;;;;;;;;;;;;;;1.65;59.14;101573.13;4968159;28;6864;-72
2021/12/21 08:21:04;;;;;;;;;;;;;;;1.67;59.01;101571.66;4950938;28;6780;-72
2021/12/21 08:23:30;;;;;;;;;;;;;;;1.67;59.31;101576.69;4935962;28;7145;-72
2021/12/21 08:25:56;;;;;;;;;;;;;;;1.70;59.25;101574.47;4949674;28;6809;-72
2021/12/21 08:28:24;;;;;;;;;;;;;;;1.73;59.22;101571.38;4949885;28;6889;-72
2021/12/21 08:30:49;;;;;;;;;;;;;;;1.75;58.67;101565.75;4951871;28;6812;-72
2021/12/21 08:33:16;;;;;;;;;;;;;;;1.78;59.16;101571.09;4950854;28;7063;-72
2021/12/21 08:35:41;;;;;;;;;;;;;;;1.81;58.66;101570.53;4957933;28;7506;-72
2021/12/21 08:38:13;;;;;;;;;;;;;;;1.84;59.29;101563.25;4960532;28;6881;-73
2021/12/21 08:40:40;;;;;;;;;;;;;;;1.88;58.90;101570.38;4959070;28;7174;-72
2021/12/21 08:43:14;;;;;;;;;;;;;;;1.92;58.71;101566.53;4943489;28;6812;-72
2021/12/21 08:45:43;;;;;;;;;;;;;;;1.96;59.29;101565.22;4940035;28;6812;-72
2021/12/21 08:48:12;;;;;;;;;;;;;;;2.01;58.84;101574.19;4961007;28;6832;-72
2021/12/21 08:50:38;;;;;;;;;;;;;;;2.03;58.60;101570.19;4958112;28;8245;-72
2021/12/21 08:53:04;;;;;;;;;;;;;;;2.06;58.38;101568.84;4958854;28;6800;-72
2021/12/21 08:55:30;;;;;;;;;;;;;;;2.09;59.04;101563.22;4959678;28;7063;-72
2021/12/21 08:57:56;;;;;;;;;;;;;;;2.13;58.40;101569.47;4957993;28;6808;-72
2021/12/21 09:00:21;;;;;;;;;;;;;;;2.15;59.19;101568.00;4942148;28;6800;-72
2021/12/21 09:02:48;;;;;;;;;;;;;;;2.18;58.98;101570.81;4960466;28;6772;-71
2021/12/21 09:05:16;;;;;;;;;;;;;;;2.24;58.83;101579.03;4955761;28;7197;-72
2021/12/21 09:07:43;;;;;;;;;;;;;;;2.27;58.53;101584.41;4960052;28;7060;-72
2021/12/21 09:10:12;;;;;;;;;;;;;;;2.31;58.52;101585.59;4957356;28;7171;-72
2021/12/21 09:12:38;;;;;;;;;;;;;;;2.35;58.10;101593.66;4962016;28;7218;-72
2021/12/21 09:15:06;;;;;;;;;;;;;;;2.40;58.53;101584.00;4957720;28;7200;-72
2021/12/21 09:17:32;;;;;;;;;;;;;;;2.46;58.82;101589.69;4955993;28;7126;-72
2021/12/21 09:19:57;;;;;;;;;;;;;;;2.50;58.56;101584.16;4960003;28;7204;-72
2021/12/21 09:22:25;;;;;;;;;;;;;;;2.57;58.98;101588.19;4958247;28;7143;-72
2021/12/21 09:24:51;;;;;;;;;;;;;;;2.63;59.06;101590.44;4942805;28;6804;-72
2021/12/21 09:27:18;;;;;;;;;;;;;;;2.67;59.12;101589.09;4943381;28;6974;-72
2021/12/21 09:29:44;;;;;;;;;;;;;;;2.73;58.83;101589.72;4942460;28;7065;-72
2021/12/21 09:32:13;;;;;;;;;;;;;;;2.77;59.40;101595.25;4958617;28;7098;-72
2021/12/21 09:34:42;;;;;;;;;;;;;;;2.84;59.27;101588.22;4957951;28;6827;-72
2021/12/21 09:37:14;;;;;;;;;;;;;;;2.86;58.47;101582.56;4941964;28;6983;-72
2021/12/21 09:39:42;;;;;;;;;;;;;;;2.94;58.82;101577.38;4959856;28;6967;-72
2021/12/21 09:42:16;;;;;;;;;;;;;;;2.99;58.43;101581.22;4957800;28;7875;-72
2021/12/21 09:44:42;;;;;;;;;;;;;;;3.02;58.49;101587.50;4958942;28;6824;-72
2021/12/21 09:47:10;;;;;;;;;;;;;;;3.09;58.79;101588.09;4956385;28;7096;-72
2021/12/21 09:49:40;;;;;;;;;;;;;;;3.14;58.38;101590.34;4940110;28;9494;-72
2021/12/21 09:52:09;;;;;;;;;;;;;;;3.19;58.92;101586.63;4956172;28;7293;-72
2021/12/21 09:54:37;;;;;;;;;;;;;;;3.26;59.25;101587.19;4954663;28;7250;-72
2021/12/21 09:57:05;;;;;;;;;;;;;;;3.31;58.43;101586.88;4957314;28;6820;-72
2021/12/21 09:59:31;;;;;;;;;;;;;;;3.37;58.28;101578.97;4957389;28;7234;-71
2021/12/21 10:01:57;;;;;;;;;;;;;;;3.43;57.87;101574.50;4934522;28;7260;-72
2021/12/21 10:04:25;;;;;;;;;;;;;;;3.49;59.04;101575.84;4955456;28;6792;-72
2021/12/21 10:06:54;;;;;;;;;;;;;;;3.57;58.31;101578.34;4956256;28;6858;-72
2021/12/21 10:09:24;;;;;;;;;;;;;;;3.66;59.22;101573.25;4956729;28;7249;-71
2021/12/21 10:11:53;;;;;;;;;;;;;;;3.75;59.17;101566.53;4927540;28;7265;-71
2021/12/21 10:14:25;;;;;;;;;;;;;;;3.87;59.26;101566.78;4970158;28;7300;-72
2021/12/21 10:17:10;;;;;;;;;;;;;;;4.01;59.94;101564.66;4955761;28;7316;-72
2021/12/21 10:19:46;;;;;;;;;;;;;;;4.13;59.72;101565.78;4958281;28;7270;-72
2021/12/21 10:22:16;;;;;;;;;;;;;;;4.28;59.54;101567.94;4954798;28;6899;-72
2021/12/21 10:24:49;;;;;;;;;;;;;;;4.42;59.68;101564.13;4958253;28;6990;-72
2021/12/21 10:27:20;;;;;;;;;;;;;;;4.55;59.36;101561.97;4961732;28;7241;-72
2021/12/21 10:29:57;;;;;;;;;;;;;;;4.72;60.04;101562.59;4963428;28;6800;-71
2021/12/21 10:32:34;;;;;;;;;;;;;;;4.89;59.90;101569.22;4978637;28;6812;-71
2021/12/21 10:35:05;;;;;;;;;;;;;;;5.08;59.95;101566.66;4963269;28;7138;-71
2021/12/21 10:37:38;;;;;;;;;;;;;;;5.30;59.18;101573.63;4946616;28;6864;-72
2021/12/21 10:40:21;;;;;;;;;;;;;;;5.55;59.16;101565.63;4963149;28;7031;-72
2021/12/21 10:42:58;;;;;;;;;;;;;;;5.80;58.77;101557.56;4950086;28;6808;-72
2021/12/21 10:45:38;;;;;;;;;;;;;;;6.04;58.23;101557.91;4961222;28;7316;-72
2021/12/21 10:48:15;;;;;;;;;;;;;;;6.28;58.81;101550.53;4962797;28;7924;-72
2021/12/21 10:50:43;;;;;;;;;;;;;;;6.53;58.28;101550.94;4963074;28;6820;-71
2021/12/21 10:53:24;;;;;;;;;;;;;;;6.78;58.01;101543.66;4962266;28;6827;-72
2021/12/21 10:56:08;;;;;;;;;;;;;;;7.17;57.79;101540.78;4963103;28;6961;-72
2021/12/21 10:58:43;;;;;;;;;;;;;;;7.57;56.66;101538.81;4947634;28;7023;-72
2021/12/21 11:01:20;;;;;;;;;;;;;;;7.98;55.42;101532.59;4946277;28;7064;-72
2021/12/21 11:03:53;;;;;;;;;;;;;;;8.36;54.94;101531.16;4964394;28;7216;-71
2021/12/21 11:06:31;;;;;;;;;;;;;;;8.67;53.91;101530.91;4964579;28;8271;-71
2021/12/21 11:08:57;;;;;;;;;;;;;;;8.90;54.49;101518.94;4960720;28;7956;-71
2021/12/21 11:11:37;;;;;;;;;;;;;;;9.10;54.09;101511.84;4947393;28;7054;-71
2021/12/21 11:14:12;;;;;;;;;;;;;;;9.34;52.94;101520.38;4962287;28;7002;-71
2021/12/21 11:16:50;;;;;;;;;;;;;;;9.65;52.38;101508.81;4961049;28;6812;-71
2021/12/21 11:19:20;;;;;;;;;;;;;;;10.01;51.04;101504.44;4961953;28;6930;-71
2021/12/21 11:21:48;;;;;;;;;;;;;;;10.44;50.42;101495.34;4962561;28;7113;-71
2021/12/21 11:24:19;;;;;;;;;;;;;;;10.77;48.74;101486.41;4962451;28;6970;-71
2021/12/21 11:26:47;;;;;;;;;;;;;;;11.06;48.09;101489.06;4964302;28;7012;-71
2021/12/21 11:29:18;;;;;;;;;;;;;;;11.29;47.93;101479.34;4963030;28;6816;-71
2021/12/21 11:31:49;;;;;;;;;;;;;;;11.41;47.78;101482.69;4977610;28;6812;-71
2021/12/21 11:34:21;;;;;;;;;;;;;;;11.51;47.42;101468.72;4962665;28;7149;-71
2021/12/21 11:39:39;;;;;;;;;;;;;;;11.93;46.25;101473.81;4962317;28;7091;-72
2021/12/21 11:42:09;;;;;;;;;;;;;;;12.24;44.89;101465.34;4933657;28;7012;-72
2021/12/21 11:45:13;;;;;;;;;;;;;;;12.53;44.94;101458.44;4935464;28;7137;-72
2021/12/21 11:47:56;;;;;;;;;;;;;;;12.77;43.90;101461.50;4959086;28;6896;-71
2021/12/21 11:50:23;;;;;;;;;;;;;;;12.92;43.67;101453.75;4962252;28;6924;-71
2021/12/21 11:52:52;;;;;;;;;;;;;;;13.01;43.49;101450.81;4962201;28;6807;-71
2021/12/21 11:55:24;;;;;;;;;;;;;;;13.10;43.43;101450.41;4961542;28;7209;-71
2021/12/21 11:57:58;;;;;;;;;;;;;;;13.25;42.21;101449.50;4961461;28;7068;-72
2021/12/21 12:00:30;;;;;;;;;;;;;;;13.47;42.16;101439.56;4961550;28;7138;-72
2021/12/21 12:03:19;;;;;;;;;;;;;;;13.75;41.81;101434.94;4961346;28;7935;-72
2021/12/21 12:06:07;;;;;;;;;;;;;;;13.68;41.06;101432.88;4976297;28;7117;-72
2021/12/21 12:08:44;;;;;;;;;;;;;;;12.76;41.61;101440.84;4961898;28;7027;-72
2021/12/21 12:11:25;;;;;;;;;;;;;;;11.67;42.91;101444.84;4960957;28;6823;-72
2021/12/21 12:14:12;;;;;;;;;;;;;;;10.67;43.67;101443.00;4963742;28;6970;-72
2021/12/21 12:16:48;;;;;;;;;;;;;;;9.84;44.71;101450.41;4960732;28;7009;-72
2021/12/21 12:19:20;;;;;;;;;;;;;;;9.17;45.04;101450.97;4975188;28;8192;-72
2021/12/21 12:22:02;;;;;;;;;;;;;;;8.60;45.82;101441.81;4961870;28;6820;-72
2021/12/21 12:24:38;;;;;;;;;;;;;;;8.14;46.66;101444.38;4960603;28;6796;-71
2021/12/21 12:27:20;;;;;;;;;;;;;;;7.73;46.16;101451.59;4960533;28;7263;-71
2021/12/21 12:30:00;;;;;;;;;;;;;;;7.41;47.46;101444.91;4960629;28;6804;-71
2021/12/21 12:32:46;;;;;;;;;;;;;;;7.15;48.32;101447.97;4963194;28;6828;-71
2021/12/21 12:35:38;;;;;;;;;;;;;;;6.96;48.25;101441.44;4960577;28;7389;-71
2021/12/21 12:38:17;;;;;;;;;;;;;;;6.79;48.26;101438.41;4930440;28;7324;-71
2021/12/21 12:41:03;;;;;;;;;;;;;;;6.66;48.34;101434.00;4962619;28;6973;-71
2021/12/21 12:43:32;;;;;;;;;;;;;;;6.60;48.92;101435.16;4932036;28;6970;-71
2021/12/21 12:46:06;;;;;;;;;;;;;;;6.52;48.53;101437.09;4953961;28;6974;-72
2021/12/21 12:48:43;;;;;;;;;;;;;;;6.43;49.47;101426.16;4962840;28;6820;-72
2021/12/21 12:51:30;;;;;;;;;;;;;;;6.34;49.76;101424.66;4959054;28;7170;-72
2021/12/21 12:53:57;;;;;;;;;;;;;;;6.29;49.41;101422.50;4957975;28;7355;-71
2021/12/21 12:56:22;;;;;;;;;;;;;;;6.25;49.87;101428.97;4927845;28;7010;-71
2021/12/21 12:58:57;;;;;;;;;;;;;;;6.21;50.06;101425.28;4960796;28;6807;-71
2021/12/21 13:01:26;;;;;;;;;;;;;;;6.16;49.71;101431.66;4973806;28;8012;-71
2021/12/21 13:03:59;;;;;;;;;;;;;;;6.11;50.13;101430.41;4943151;28;7237;-71
2021/12/21 13:06:27;;;;;;;;;;;;;;;6.09;50.25;101429.38;4950970;28;7199;-71
2021/12/21 13:08:53;;;;;;;;;;;;;;;6.07;50.64;101443.59;4944503;28;6935;-72
2021/12/21 13:11:25;;;;;;;;;;;;;;;6.04;50.49;101426.47;4943949;28;7293;-72
2021/12/21 13:13:53;;;;;;;;;;;;;;;6.06;50.40;101417.28;4958798;28;7088;-72
2021/12/21 13:16:27;;;;;;;;;;;;;;;6.07;50.70;101418.16;4943821;28;6820;-71
2021/12/21 13:19:11;;;;;;;;;;;;;;;6.06;50.74;101413.84;4961231;28;7070;-71
2021/12/21 13:21:40;;;;;;;;;;;;;;;6.05;50.81;101422.25;4960017;28;6800;-71
2021/12/21 13:24:20;;;;;;;;;;;;;;;6.04;50.91;101417.91;4959235;28;7000;-71
2021/12/21 13:26:55;;;;;;;;;;;;;;;6.06;51.17;101418.94;4921370;28;7324;-71
2021/12/21 13:29:27;;;;;;;;;;;;;;;6.08;51.34;101415.75;4959596;28;7062;-71
2021/12/21 13:31:57;;;;;;;;;;;;;;;6.12;51.31;101419.44;4941840;28;7541;-71
2021/12/21 13:34:25;;;;;;;;;;;;;;;6.13;51.33;101417.78;4958264;28;7214;-71
2021/12/21 13:36:56;;;;;;;;;;;;;;;6.13;51.48;101411.03;4941957;28;6993;-71
2021/12/21 13:39:31;;;;;;;;;;;;;;;6.11;51.33;101418.53;4960011;28;7218;-71
2021/12/21 13:42:15;;;;;;;;;;;;;;;6.10;51.55;101426.06;4975409;28;6963;-71
2021/12/21 13:44:47;;;;;;;;;;;;;;;6.07;51.78;101424.16;4943253;28;7253;-71
2021/12/21 13:47:22;;;;;;;;;;;;;;;6.08;51.56;101422.47;4958918;28;7403;-72
2021/12/21 13:50:19;;;;;;;;;;;;;;;6.06;51.82;101414.75;4927491;28;7178;-72
2021/12/21 13:53:00;;;;;;;;;;;;;;;6.05;51.94;101417.16;4957467;28;7072;-72
2021/12/21 13:55:36;;;;;;;;;;;;;;;6.03;51.86;101419.56;4957473;28;7434;-71
2021/12/21 13:58:09;;;;;;;;;;;;;;;6.03;51.31;101416.13;4959012;28;7219;-71
2021/12/21 14:00:41;;;;;;;;;;;;;;;6.01;52.17;101415.97;4959943;28;7358;-71
2021/12/21 14:03:26;;;;;;;;;;;;;;;6.01;52.04;101421.06;4978110;28;7282;-71
2021/12/21 14:06:01;;;;;;;;;;;;;;;5.97;52.14;101419.03;4947340;28;7134;-71
2021/12/21 14:08:27;;;;;;;;;;;;;;;5.93;51.55;101420.44;4958120;28;7211;-72
2021/12/21 14:10:55;;;;;;;;;;;;;;;5.89;52.00;101418.41;4959713;28;6803;-71
2021/12/21 14:13:31;;;;;;;;;;;;;;;5.86;51.75;101413.03;4962609;28;6800;-71
2021/12/21 14:15:57;;;;;;;;;;;;;;;5.82;51.86;101413.56;4957873;28;7374;-71